Eaton, OH (45320)

4:28 PM EST on February 20, 2017 (GMT -0500)
ME1148 | | Change Station

Elev 1052 ft 39.76 °N, 84.63 °W | Updated 19 minutes ago

Partly Cloudy
Partly Cloudy
63.0 °F
Feels Like 63.0 °F
N
4.0
Wind Variable Wind from ENE
Gusts 7.0 mph

Today
High -- | Low -- °F
--% Chance of Precip.
Yesterday
High -- | Low -- °F
Precip. -- in
Pressure 30.14 in
Visibility 10.0 miles
Clouds Clear
Dew Point 48 °F
Humidity 57%
Rainfall 0.00 in
Snow Depth Not available.
7:24 AM 6:20 PM
Waning Crescent, 31% visible
METAR KMGY 202053Z AUTO 12008KT 10SM CLR 19/05 A3013 RMK AO2 SLP206 T01890050 56023
Pressure 30.14 in
Visibility 10.0 miles
Clouds Clear
Dew Point 48 °F
Humidity 57%
Rainfall 0.00 in
Snow Depth Not available.
7:24 AM 6:20 PM
Waning Crescent, 31% visible
METAR KMGY 202053Z AUTO 12008KT 10SM CLR 19/05 A3013 RMK AO2 SLP206 T01890050 56023

Get Your Daily Forecast Email!

Thanks for signing up!

Be on the lookout for a verification email in your inbox.

You'll start receiving the daily forecast at 8 AM.

×

10-Day Weather Forecast

Almanac

Astronomy

Feb. 20, 2017 Rise Set
Actual Time
Civil Twilight
Nautical Twilight
Astronomical Twilight
Moon
Length of Visible Light
Length of Day
Tomorrow will be .
, % of the Moon is Illuminated

Today's Extremes

State Highs State Lows

Community

WunderPhotos

Upload Photos

1,962,540 photos uploaded!

WunderBlog® & News

Nearby

Air Quality

  Air Quality AQ Index Pollutant
Not available.

Snow Depth

Station Depth Elevation

Earthquake Activity

City Distance Mag. Time & Date
Minimum magnitude displayed is 2.5.

Coastal Water Temperatures

Place Temperature

Stations

Nearby Weather Stations

Station Location Temp. Windchill Dew Point Humidity Wind Precip. Elev Updated Type
                   

Watches & Warnings

There are currently no watches in effect.